sensor_id;sensor_type;location;lat;lon;timestamp;pressure;altitude;pressure_sealevel;temperature;humidity
6464;BME280;3265;42.694;23.282;2023-04-03T00:00:40;94043.88;;;8.23;83.37
6464;BME280;3265;42.694;23.282;2023-04-03T00:03:07;94042.53;;;8.21;83.97
6464;BME280;3265;42.694;23.282;2023-04-03T00:05:34;94014.06;;;8.02;84.11
6464;BME280;3265;42.694;23.282;2023-04-03T00:08:01;94028.59;;;8.22;84.03
6464;BME280;3265;42.694;23.282;2023-04-03T00:10:29;94021.34;;;8.30;84.01
6464;BME280;3265;42.694;23.282;2023-04-03T00:12:56;93993.44;;;8.14;84.39
6464;BME280;3265;42.694;23.282;2023-04-03T00:15:23;94016.19;;;8.42;83.96
6464;BME280;3265;42.694;23.282;2023-04-03T00:17:51;94020.09;;;8.33;83.47
6464;BME280;3265;42.694;23.282;2023-04-03T00:20:18;94028.50;;;8.28;83.98
6464;BME280;3265;42.694;23.282;2023-04-03T00:22:45;94011.81;;;8.24;84.36
6464;BME280;3265;42.694;23.282;2023-04-03T00:25:12;94024.47;;;8.32;84.88
6464;BME280;3265;42.694;23.282;2023-04-03T00:27:39;93993.59;;;8.19;84.91
6464;BME280;3265;42.694;23.282;2023-04-03T00:30:09;94020.47;;;8.36;85.51
6464;BME280;3265;42.694;23.282;2023-04-03T00:32:37;94020.31;;;8.31;85.37
6464;BME280;3265;42.694;23.282;2023-04-03T00:35:06;94021.56;;;8.40;85.26
6464;BME280;3265;42.694;23.282;2023-04-03T00:37:33;94008.50;;;8.35;85.63
6464;BME280;3265;42.694;23.282;2023-04-03T00:40:00;94028.03;;;8.49;85.44
6464;BME280;3265;42.694;23.282;2023-04-03T00:42:26;94029.03;;;8.48;84.40
6464;BME280;3265;42.694;23.282;2023-04-03T00:48:01;94014.38;;;8.31;86.00
6464;BME280;3265;42.694;23.282;2023-04-03T00:50:34;94031.28;;;8.45;84.24
6464;BME280;3265;42.694;23.282;2023-04-03T00:53:03;94015.97;;;8.43;85.09
6464;BME280;3265;42.694;23.282;2023-04-03T00:55:31;93985.09;;;8.12;85.28
6464;BME280;3265;42.694;23.282;2023-04-03T00:58:00;94026.88;;;8.34;85.44
6464;BME280;3265;42.694;23.282;2023-04-03T01:00:28;94011.91;;;8.18;85.92
6464;BME280;3265;42.694;23.282;2023-04-03T01:02:55;94017.44;;;8.21;85.20
6464;BME280;3265;42.694;23.282;2023-04-03T01:05:22;94033.88;;;8.27;85.74
6464;BME280;3265;42.694;23.282;2023-04-03T01:07:51;94025.56;;;8.25;85.85
6464;BME280;3265;42.694;23.282;2023-04-03T01:10:19;94025.84;;;8.17;85.97
6464;BME280;3265;42.694;23.282;2023-04-03T01:12:48;94035.31;;;8.23;85.47
6464;BME280;3265;42.694;23.282;2023-04-03T01:15:17;94038.78;;;8.17;85.89
6464;BME280;3265;42.694;23.282;2023-04-03T01:17:45;94037.78;;;8.18;85.78
6464;BME280;3265;42.694;23.282;2023-04-03T01:23:31;94033.59;;;8.17;85.80
6464;BME280;3265;42.694;23.282;2023-04-03T01:25:59;94036.41;;;8.15;86.13
6464;BME280;3265;42.694;23.282;2023-04-03T01:28:28;94028.25;;;8.00;86.16
6464;BME280;3265;42.694;23.282;2023-04-03T01:31:02;94042.81;;;8.13;85.29
6464;BME280;3265;42.694;23.282;2023-04-03T01:33:31;94030.09;;;8.11;85.89
6464;BME280;3265;42.694;23.282;2023-04-03T01:35:58;94037.09;;;8.11;86.44
6464;BME280;3265;42.694;23.282;2023-04-03T01:38:25;94024.91;;;8.11;85.89
6464;BME280;3265;42.694;23.282;2023-04-03T01:40:52;94035.63;;;7.96;86.96
6464;BME280;3265;42.694;23.282;2023-04-03T01:43:19;94033.22;;;8.02;86.14
6464;BME280;3265;42.694;23.282;2023-04-03T01:45:45;94031.50;;;7.95;86.48
6464;BME280;3265;42.694;23.282;2023-04-03T01:48:14;94027.75;;;7.91;86.16
6464;BME280;3265;42.694;23.282;2023-04-03T01:50:42;94025.25;;;7.85;86.24
6464;BME280;3265;42.694;23.282;2023-04-03T01:53:10;94031.63;;;7.82;87.46
6464;BME280;3265;42.694;23.282;2023-04-03T01:55:37;94021.72;;;7.79;86.93
6464;BME280;3265;42.694;23.282;2023-04-03T01:58:04;94032.56;;;7.88;86.89
6464;BME280;3265;42.694;23.282;2023-04-03T02:00:30;94040.84;;;7.78;87.47
6464;BME280;3265;42.694;23.282;2023-04-03T02:02:57;94039.81;;;7.79;87.11
6464;BME280;3265;42.694;23.282;2023-04-03T02:05:24;94017.50;;;7.67;86.84
6464;BME280;3265;42.694;23.282;2023-04-03T02:07:52;94020.78;;;7.74;87.24
6464;BME280;3265;42.694;23.282;2023-04-03T02:10:19;94016.56;;;7.61;86.97
6464;BME280;3265;42.694;23.282;2023-04-03T02:12:46;94011.38;;;7.61;87.78
6464;BME280;3265;42.694;23.282;2023-04-03T02:15:13;94027.91;;;7.78;87.86
6464;BME280;3265;42.694;23.282;2023-04-03T02:17:39;94024.38;;;7.73;87.84
6464;BME280;3265;42.694;23.282;2023-04-03T02:20:07;94027.91;;;7.78;87.24
6464;BME280;3265;42.694;23.282;2023-04-03T02:22:35;94028.59;;;7.85;87.20
6464;BME280;3265;42.694;23.282;2023-04-03T02:25:04;94018.91;;;7.81;87.04
6464;BME280;3265;42.694;23.282;2023-04-03T02:27:31;94016.19;;;7.58;86.75
6464;BME280;3265;42.694;23.282;2023-04-03T02:29:58;94026.59;;;7.51;88.16
6464;BME280;3265;42.694;23.282;2023-04-03T02:32:24;94022.66;;;7.49;88.85
6464;BME280;3265;42.694;23.282;2023-04-03T02:34:51;94017.69;;;7.47;89.28
6464;BME280;3265;42.694;23.282;2023-04-03T02:37:18;93977.19;;;7.23;89.43
6464;BME280;3265;42.694;23.282;2023-04-03T02:39:46;93984.69;;;7.24;89.44
6464;BME280;3265;42.694;23.282;2023-04-03T02:42:14;93983.94;;;7.24;90.12
6464;BME280;3265;42.694;23.282;2023-04-03T02:44:41;94016.03;;;7.34;90.42
6464;BME280;3265;42.694;23.282;2023-04-03T02:47:08;94011.22;;;7.38;90.32
6464;BME280;3265;42.694;23.282;2023-04-03T02:49:34;94011.94;;;7.45;89.56
6464;BME280;3265;42.694;23.282;2023-04-03T02:52:01;93999.16;;;7.32;89.70
6464;BME280;3265;42.694;23.282;2023-04-03T02:54:28;93991.59;;;7.30;89.71
6464;BME280;3265;42.694;23.282;2023-04-03T02:56:56;93995.78;;;7.31;89.34
6464;BME280;3265;42.694;23.282;2023-04-03T02:59:24;94006.47;;;7.35;89.62
6464;BME280;3265;42.694;23.282;2023-04-03T03:01:51;94006.47;;;7.35;89.83
6464;BME280;3265;42.694;23.282;2023-04-03T03:04:18;93999.72;;;7.34;89.21
6464;BME280;3265;42.694;23.282;2023-04-03T03:06:45;93991.59;;;7.12;90.39
6464;BME280;3265;42.694;23.282;2023-04-03T03:09:15;93990.16;;;7.16;90.55
6464;BME280;3265;42.694;23.282;2023-04-03T03:11:42;93963.72;;;6.96;90.87
6464;BME280;3265;42.694;23.282;2023-04-03T03:14:09;93989.00;;;7.12;91.43
6464;BME280;3265;42.694;23.282;2023-04-03T03:16:37;93969.16;;;7.13;90.92
6464;BME280;3265;42.694;23.282;2023-04-03T03:19:04;93991.47;;;7.25;91.07
6464;BME280;3265;42.694;23.282;2023-04-03T03:21:32;93990.84;;;7.30;90.70
6464;BME280;3265;42.694;23.282;2023-04-03T03:23:58;93947.38;;;7.02;90.73
6464;BME280;3265;42.694;23.282;2023-04-03T03:26:25;93989.34;;;7.16;91.11
6464;BME280;3265;42.694;23.282;2023-04-03T03:28:52;93984.69;;;7.06;91.68
6464;BME280;3265;42.694;23.282;2023-04-03T03:31:19;93995.13;;;7.18;91.13
6464;BME280;3265;42.694;23.282;2023-04-03T03:33:47;93995.13;;;7.18;91.10
6464;BME280;3265;42.694;23.282;2023-04-03T03:36:14;93990.38;;;7.15;91.24
6464;BME280;3265;42.694;23.282;2023-04-03T03:38:41;93980.63;;;7.17;90.63
6464;BME280;3265;42.694;23.282;2023-04-03T03:41:08;94004.59;;;7.24;90.89
6464;BME280;3265;42.694;23.282;2023-04-03T03:43:35;94001.44;;;7.22;91.10
6464;BME280;3265;42.694;23.282;2023-04-03T03:46:02;94000.72;;;7.15;91.29
6464;BME280;3265;42.694;23.282;2023-04-03T03:48:31;93972.69;;;6.94;91.24
6464;BME280;3265;42.694;23.282;2023-04-03T03:51:00;93961.81;;;6.85;91.44
6464;BME280;3265;42.694;23.282;2023-04-03T03:53:27;93950.09;;;6.89;90.96
6464;BME280;3265;42.694;23.282;2023-04-03T03:55:57;94003.28;;;7.15;91.42
6464;BME280;3265;42.694;23.282;2023-04-03T03:58:23;94008.31;;;7.10;91.59
6464;BME280;3265;42.694;23.282;2023-04-03T04:00:51;94007.16;;;7.06;91.95
6464;BME280;3265;42.694;23.282;2023-04-03T04:03:18;94005.22;;;7.01;92.07
6464;BME280;3265;42.694;23.282;2023-04-03T04:05:46;93997.00;;;7.04;91.97
6464;BME280;3265;42.694;23.282;2023-04-03T04:08:14;93920.22;;;6.50;92.26
6464;BME280;3265;42.694;23.282;2023-04-03T04:10:41;93973.31;;;6.89;92.31
6464;BME280;3265;42.694;23.282;2023-04-03T04:13:08;93991.09;;;7.04;92.46
6464;BME280;3265;42.694;23.282;2023-04-03T04:15:36;93980.22;;;6.95;91.86
6464;BME280;3265;42.694;23.282;2023-04-03T04:18:03;93996.97;;;7.11;91.46
6464;BME280;3265;42.694;23.282;2023-04-03T04:20:31;94016.06;;;7.10;91.24
6464;BME280;3265;42.694;23.282;2023-04-03T04:23:14;94020.72;;;7.01;91.90
6464;BME280;3265;42.694;23.282;2023-04-03T04:25:41;94021.84;;;7.05;91.84
6464;BME280;3265;42.694;23.282;2023-04-03T04:28:07;94012.38;;;6.99;91.87
6464;BME280;3265;42.694;23.282;2023-04-03T04:30:35;94014.66;;;7.07;91.51
6464;BME280;3265;42.694;23.282;2023-04-03T04:33:02;94007.94;;;7.06;91.71
6464;BME280;3265;42.694;23.282;2023-04-03T04:35:31;94003.63;;;7.00;92.02
6464;BME280;3265;42.694;23.282;2023-04-03T04:37:58;94015.09;;;7.04;91.95
6464;BME280;3265;42.694;23.282;2023-04-03T04:40:30;94007.84;;;6.95;92.15
6464;BME280;3265;42.694;23.282;2023-04-03T04:42:59;94031.56;;;7.10;91.86
6464;BME280;3265;42.694;23.282;2023-04-03T04:45:26;94026.41;;;7.10;92.23
6464;BME280;3265;42.694;23.282;2023-04-03T04:47:56;94002.41;;;7.03;91.37
6464;BME280;3265;42.694;23.282;2023-04-03T04:50:23;94023.97;;;7.15;91.32
6464;BME280;3265;42.694;23.282;2023-04-03T04:52:51;94014.00;;;7.18;91.46
6464;BME280;3265;42.694;23.282;2023-04-03T04:55:17;94025.09;;;7.19;91.45
6464;BME280;3265;42.694;23.282;2023-04-03T04:57:46;94033.72;;;7.13;92.27
6464;BME280;3265;42.694;23.282;2023-04-03T05:00:14;94031.44;;;7.23;92.42
6464;BME280;3265;42.694;23.282;2023-04-03T05:02:41;94030.97;;;7.32;91.70
6464;BME280;3265;42.694;23.282;2023-04-03T05:05:08;94051.66;;;7.51;91.34
6464;BME280;3265;42.694;23.282;2023-04-03T05:07:35;94049.28;;;7.49;91.38
6464;BME280;3265;42.694;23.282;2023-04-03T05:10:02;94056.19;;;7.55;91.00
6464;BME280;3265;42.694;23.282;2023-04-03T05:12:29;94028.66;;;7.42;90.69
6464;BME280;3265;42.694;23.282;2023-04-03T05:14:58;94061.50;;;7.60;91.08
6464;BME280;3265;42.694;23.282;2023-04-03T05:17:25;94064.09;;;7.60;90.84
6464;BME280;3265;42.694;23.282;2023-04-03T05:19:51;94062.34;;;7.54;91.50
6464;BME280;3265;42.694;23.282;2023-04-03T05:22:18;94070.56;;;7.69;90.71
6464;BME280;3265;42.694;23.282;2023-04-03T05:24:45;94074.88;;;7.75;90.56
6464;BME280;3265;42.694;23.282;2023-04-03T05:27:12;94068.06;;;7.81;89.68
6464;BME280;3265;42.694;23.282;2023-04-03T05:29:39;94069.84;;;7.80;89.77
6464;BME280;3265;42.694;23.282;2023-04-03T05:32:11;94067.84;;;7.82;89.38
6464;BME280;3265;42.694;23.282;2023-04-03T05:34:38;94064.38;;;7.88;88.94
6464;BME280;3265;42.694;23.282;2023-04-03T05:37:05;94066.53;;;7.91;88.95
6464;BME280;3265;42.694;23.282;2023-04-03T05:39:32;94065.13;;;7.95;89.03
6464;BME280;3265;42.694;23.282;2023-04-03T05:41:59;94031.06;;;7.80;89.01
6464;BME280;3265;42.694;23.282;2023-04-03T05:44:26;94063.03;;;8.04;88.86
6464;BME280;3265;42.694;23.282;2023-04-03T05:46:53;94062.09;;;7.98;88.63
6464;BME280;3265;42.694;23.282;2023-04-03T05:49:21;94055.13;;;7.99;88.39
6464;BME280;3265;42.694;23.282;2023-04-03T05:51:48;94034.72;;;7.91;88.18
6464;BME280;3265;42.694;23.282;2023-04-03T05:54:19;94044.56;;;8.00;87.15
6464;BME280;3265;42.694;23.282;2023-04-03T05:56:48;94054.59;;;8.09;87.67
6464;BME280;3265;42.694;23.282;2023-04-03T05:59:15;94023.66;;;8.02;87.17
6464;BME280;3265;42.694;23.282;2023-04-03T06:01:42;94025.44;;;8.02;87.55
6464;BME280;3265;42.694;23.282;2023-04-03T06:04:09;94031.56;;;8.07;86.95
6464;BME280;3265;42.694;23.282;2023-04-03T06:06:45;94053.88;;;8.20;86.85
6464;BME280;3265;42.694;23.282;2023-04-03T06:09:12;94027.50;;;8.11;86.40
6464;BME280;3265;42.694;23.282;2023-04-03T06:11:39;94031.72;;;8.24;86.23
6464;BME280;3265;42.694;23.282;2023-04-03T06:14:07;94025.56;;;8.25;85.87
6464;BME280;3265;42.694;23.282;2023-04-03T06:16:34;94012.03;;;8.23;86.53
6464;BME280;3265;42.694;23.282;2023-04-03T06:19:01;93999.75;;;8.18;86.34
6464;BME280;3265;42.694;23.282;2023-04-03T06:21:29;94015.41;;;8.41;86.27
6464;BME280;3265;42.694;23.282;2023-04-03T06:23:58;94005.25;;;8.40;86.46
6464;BME280;3265;42.694;23.282;2023-04-03T06:26:25;94030.97;;;8.53;85.28
6464;BME280;3265;42.694;23.282;2023-04-03T06:28:52;94037.44;;;8.62;85.90
6464;BME280;3265;42.694;23.282;2023-04-03T06:31:19;94035.63;;;8.63;84.27
6464;BME280;3265;42.694;23.282;2023-04-03T06:33:46;94033.16;;;8.68;85.52
6464;BME280;3265;42.694;23.282;2023-04-03T06:36:13;94030.94;;;8.71;85.43
6464;BME280;3265;42.694;23.282;2023-04-03T06:38:40;93999.78;;;8.48;85.66
6464;BME280;3265;42.694;23.282;2023-04-03T06:41:09;94050.28;;;8.80;85.76
6464;BME280;3265;42.694;23.282;2023-04-03T06:43:35;94014.16;;;8.74;84.45
6464;BME280;3265;42.694;23.282;2023-04-03T06:46:03;94050.91;;;8.94;84.91
6464;BME280;3265;42.694;23.282;2023-04-03T06:48:30;94047.75;;;9.03;84.41
6464;BME280;3265;42.694;23.282;2023-04-03T06:50:57;94017.22;;;8.94;84.32
6464;BME280;3265;42.694;23.282;2023-04-03T06:53:25;94028.72;;;8.98;85.09
6464;BME280;3265;42.694;23.282;2023-04-03T06:55:51;94029.50;;;8.98;85.87
6464;BME280;3265;42.694;23.282;2023-04-03T06:58:20;94043.03;;;9.24;83.53
6464;BME280;3265;42.694;23.282;2023-04-03T07:00:47;94022.88;;;9.14;84.17
6464;BME280;3265;42.694;23.282;2023-04-03T07:03:14;94052.22;;;9.38;82.67
6464;BME280;3265;42.694;23.282;2023-04-03T07:05:41;94053.56;;;9.40;82.45
6464;BME280;3265;42.694;23.282;2023-04-03T07:08:10;94045.34;;;9.32;83.70
6464;BME280;3265;42.694;23.282;2023-04-03T07:10:38;94050.38;;;9.50;83.63
6464;BME280;3265;42.694;23.282;2023-04-03T07:13:05;94054.47;;;9.57;82.10
6464;BME280;3265;42.694;23.282;2023-04-03T07:15:33;94017.38;;;9.45;81.10
6464;BME280;3265;42.694;23.282;2023-04-03T07:18:02;94018.81;;;9.64;80.75
6464;BME280;3265;42.694;23.282;2023-04-03T07:20:30;94019.69;;;9.70;81.01
6464;BME280;3265;42.694;23.282;2023-04-03T07:22:56;94024.88;;;9.82;80.87
6464;BME280;3265;42.694;23.282;2023-04-03T07:25:23;94022.25;;;9.93;79.59
6464;BME280;3265;42.694;23.282;2023-04-03T07:27:50;94036.81;;;9.94;80.26
6464;BME280;3265;42.694;23.282;2023-04-03T07:30:17;94034.59;;;9.63;81.25
6464;BME280;3265;42.694;23.282;2023-04-03T07:32:45;94028.38;;;9.64;82.71
6464;BME280;3265;42.694;23.282;2023-04-03T07:35:12;94025.03;;;9.63;82.84
6464;BME280;3265;42.694;23.282;2023-04-03T07:37:39;94031.31;;;9.67;83.26
6464;BME280;3265;42.694;23.282;2023-04-03T07:40:07;94020.13;;;9.90;81.68
6464;BME280;3265;42.694;23.282;2023-04-03T07:42:34;94023.47;;;10.14;80.69
6464;BME280;3265;42.694;23.282;2023-04-03T07:45:01;94013.59;;;10.27;79.58
6464;BME280;3265;42.694;23.282;2023-04-03T07:47:28;93977.75;;;10.13;80.34
6464;BME280;3265;42.694;23.282;2023-04-03T07:49:57;94007.78;;;10.20;81.05
6464;BME280;3265;42.694;23.282;2023-04-03T07:52:24;94011.91;;;10.33;79.90
6464;BME280;3265;42.694;23.282;2023-04-03T07:54:51;94006.56;;;10.40;79.54
6464;BME280;3265;42.694;23.282;2023-04-03T07:57:18;93997.22;;;10.39;79.48
6464;BME280;3265;42.694;23.282;2023-04-03T07:59:44;94011.56;;;10.58;79.81
6464;BME280;3265;42.694;23.282;2023-04-03T08:02:12;94000.41;;;10.74;77.97
6464;BME280;3265;42.694;23.282;2023-04-03T08:04:39;93999.88;;;10.89;76.47
6464;BME280;3265;42.694;23.282;2023-04-03T08:07:07;93989.47;;;10.89;75.45
6464;BME280;3265;42.694;23.282;2023-04-03T08:09:34;94001.59;;;11.00;75.24
6464;BME280;3265;42.694;23.282;2023-04-03T08:12:01;94006.78;;;11.00;75.17
6464;BME280;3265;42.694;23.282;2023-04-03T08:14:30;94000.19;;;11.09;73.99
6464;BME280;3265;42.694;23.282;2023-04-03T08:17:00;93996.41;;;11.16;73.31
6464;BME280;3265;42.694;23.282;2023-04-03T08:19:28;93996.22;;;11.23;72.71
6464;BME280;3265;42.694;23.282;2023-04-03T08:21:55;94002.41;;;11.33;72.95
6464;BME280;3265;42.694;23.282;2023-04-03T08:24:23;93996.06;;;11.46;71.35
6464;BME280;3265;42.694;23.282;2023-04-03T08:26:50;93988.88;;;11.53;71.73
6464;BME280;3265;42.694;23.282;2023-04-03T08:29:17;93988.06;;;11.69;70.79
6464;BME280;3265;42.694;23.282;2023-04-03T08:31:44;94004.84;;;11.78;70.26
6464;BME280;3265;42.694;23.282;2023-04-03T08:34:11;93989.53;;;11.82;70.45
6464;BME280;3265;42.694;23.282;2023-04-03T08:36:38;93985.53;;;11.96;68.55
6464;BME280;3265;42.694;23.282;2023-04-03T08:39:05;93989.03;;;12.07;67.36
6464;BME280;3265;42.694;23.282;2023-04-03T08:41:36;93984.69;;;12.12;67.41
6464;BME280;3265;42.694;23.282;2023-04-03T08:44:13;93980.38;;;12.23;66.95
6464;BME280;3265;42.694;23.282;2023-04-03T08:46:49;93979.63;;;12.27;66.35
6464;BME280;3265;42.694;23.282;2023-04-03T08:49:24;93980.56;;;12.38;65.95
6464;BME280;3265;42.694;23.282;2023-04-03T08:51:53;93979.50;;;12.39;65.37
6464;BME280;3265;42.694;23.282;2023-04-03T08:54:27;93978.97;;;12.37;65.39
6464;BME280;3265;42.694;23.282;2023-04-03T08:56:57;93974.59;;;12.42;66.04
6464;BME280;3265;42.694;23.282;2023-04-03T08:59:29;93973.34;;;12.50;65.02
6464;BME280;3265;42.694;23.282;2023-04-03T09:02:01;93962.41;;;12.48;64.98
6464;BME280;3265;42.694;23.282;2023-04-03T09:04:31;93960.72;;;12.64;64.04
6464;BME280;3265;42.694;23.282;2023-04-03T09:07:05;93959.44;;;12.66;64.23
6464;BME280;3265;42.694;23.282;2023-04-03T09:09:35;93947.28;;;12.77;63.86
6464;BME280;3265;42.694;23.282;2023-04-03T09:12:15;93951.50;;;12.83;63.36
6464;BME280;3265;42.694;23.282;2023-04-03T09:14:48;93944.78;;;12.92;62.91
6464;BME280;3265;42.694;23.282;2023-04-03T09:17:24;93944.03;;;12.96;61.80
6464;BME280;3265;42.694;23.282;2023-04-03T09:20:04;93944.84;;;13.02;62.26
6464;BME280;3265;42.694;23.282;2023-04-03T09:22:38;93936.53;;;13.05;61.78
6464;BME280;3265;42.694;23.282;2023-04-03T09:25:12;93936.63;;;13.10;61.54
6464;BME280;3265;42.694;23.282;2023-04-03T09:27:42;93934.56;;;13.17;62.07
6464;BME280;3265;42.694;23.282;2023-04-03T09:30:14;93934.88;;;13.26;61.17
6464;BME280;3265;42.694;23.282;2023-04-03T09:32:44;93928.16;;;13.35;60.70
6464;BME280;3265;42.694;23.282;2023-04-03T09:35:19;93928.84;;;13.20;60.24
6464;BME280;3265;42.694;23.282;2023-04-03T09:37:49;93920.31;;;13.30;60.58
6464;BME280;3265;42.694;23.282;2023-04-03T09:40:43;93925.53;;;13.35;59.73
6464;BME280;3265;42.694;23.282;2023-04-03T09:43:25;93919.34;;;13.51;59.28
6464;BME280;3265;42.694;23.282;2023-04-03T09:45:53;93911.31;;;13.57;58.31
6464;BME280;3265;42.694;23.282;2023-04-03T09:48:22;93908.97;;;13.56;58.61
6464;BME280;3265;42.694;23.282;2023-04-03T09:51:00;93902.47;;;13.63;58.55
6464;BME280;3265;42.694;23.282;2023-04-03T09:53:35;93902.75;;;13.77;58.92
6464;BME280;3265;42.694;23.282;2023-04-03T09:56:04;93904.13;;;13.85;58.22
6464;BME280;3265;42.694;23.282;2023-04-03T09:58:38;93899.47;;;14.02;58.13
6464;BME280;3265;42.694;23.282;2023-04-03T10:01:07;93902.09;;;14.07;57.81
6464;BME280;3265;42.694;23.282;2023-04-03T10:04:03;93891.88;;;14.00;57.42
6464;BME280;3265;42.694;23.282;2023-04-03T10:06:32;93903.16;;;14.11;57.24
6464;BME280;3265;42.694;23.282;2023-04-03T10:09:05;93895.28;;;14.06;56.76
6464;BME280;3265;42.694;23.282;2023-04-03T10:11:33;93896.84;;;14.07;56.37
6464;BME280;3265;42.694;23.282;2023-04-03T10:14:02;93893.72;;;14.05;56.92
6464;BME280;3265;42.694;23.282;2023-04-03T10:16:35;93895.84;;;14.18;55.50
6464;BME280;3265;42.694;23.282;2023-04-03T10:19:24;93900.03;;;14.19;55.63
6464;BME280;3265;42.694;23.282;2023-04-03T10:21:59;93890.09;;;14.11;55.81
6464;BME280;3265;42.694;23.282;2023-04-03T10:24:35;93894.25;;;14.12;56.06
6464;BME280;3265;42.694;23.282;2023-04-03T10:27:07;93878.28;;;14.08;55.37
6464;BME280;3265;42.694;23.282;2023-04-03T10:29:42;93878.28;;;14.08;55.53
6464;BME280;3265;42.694;23.282;2023-04-03T10:32:26;93886.91;;;14.09;55.82
6464;BME280;3265;42.694;23.282;2023-04-03T10:34:59;93879.34;;;14.12;55.45
6464;BME280;3265;42.694;23.282;2023-04-03T10:37:30;93872.31;;;14.08;56.12
6464;BME280;3265;42.694;23.282;2023-04-03T10:40:10;93868.13;;;14.12;56.14
6464;BME280;3265;42.694;23.282;2023-04-03T10:42:44;93868.94;;;14.23;57.02
6464;BME280;3265;42.694;23.282;2023-04-03T10:45:24;93868.66;;;14.29;55.79
6464;BME280;3265;42.694;23.282;2023-04-03T10:48:00;93857.41;;;14.29;54.66
6464;BME280;3265;42.694;23.282;2023-04-03T10:50:38;93873.09;;;14.29;55.26
6464;BME280;3265;42.694;23.282;2023-04-03T10:53:14;93856.63;;;14.18;54.94
6464;BME280;3265;42.694;23.282;2023-04-03T10:55:49;93866.06;;;14.19;55.35
6464;BME280;3265;42.694;23.282;2023-04-03T10:58:21;93852.97;;;14.09;56.04
6464;BME280;3265;42.694;23.282;2023-04-03T11:00:59;93850.84;;;13.91;56.72
6464;BME280;3265;42.694;23.282;2023-04-03T11:03:30;93861.25;;;13.86;56.99
6464;BME280;3265;42.694;23.282;2023-04-03T11:06:02;93858.41;;;13.92;57.60
6464;BME280;3265;42.694;23.282;2023-04-03T11:08:48;93870.69;;;13.92;57.69
6464;BME280;3265;42.694;23.282;2023-04-03T11:11:39;93870.44;;;13.93;57.73
6464;BME280;3265;42.694;23.282;2023-04-03T11:14:11;93865.97;;;13.89;59.08
6464;BME280;3265;42.694;23.282;2023-04-03T11:16:46;93874.31;;;13.86;61.37
6464;BME280;3265;42.694;23.282;2023-04-03T11:19:17;93868.56;;;13.84;61.90
6464;BME280;3265;42.694;23.282;2023-04-03T11:21:51;93869.59;;;13.73;64.85
6464;BME280;3265;42.694;23.282;2023-04-03T11:24:24;93866.19;;;13.72;66.72
6464;BME280;3265;42.694;23.282;2023-04-03T11:26:52;93867.19;;;13.61;68.71
6464;BME280;3265;42.694;23.282;2023-04-03T11:29:29;93862.13;;;13.39;72.52
6464;BME280;3265;42.694;23.282;2023-04-03T11:32:18;93855.78;;;13.20;73.58
6464;BME280;3265;42.694;23.282;2023-04-03T11:34:52;93841.16;;;13.14;73.36
6464;BME280;3265;42.694;23.282;2023-04-03T11:37:28;93867.75;;;13.16;77.63
6464;BME280;3265;42.694;23.282;2023-04-03T11:40:04;93854.97;;;13.10;79.26
6464;BME280;3265;42.694;23.282;2023-04-03T11:42:35;93855.44;;;13.06;81.36
6464;BME280;3265;42.694;23.282;2023-04-03T11:45:49;93846.75;;;12.96;83.47
6464;BME280;3265;42.694;23.282;2023-04-03T11:48:53;93853.72;;;12.85;82.84
6464;BME280;3265;42.694;23.282;2023-04-03T11:51:50;93851.88;;;12.81;84.52
6464;BME280;3265;42.694;23.282;2023-04-03T11:54:44;93841.88;;;12.68;85.64
6464;BME280;3265;42.694;23.282;2023-04-03T11:57:46;93861.19;;;12.67;87.70
6464;BME280;3265;42.694;23.282;2023-04-03T12:00:50;93862.19;;;12.66;87.92
6464;BME280;3265;42.694;23.282;2023-04-03T12:03:35;93857.72;;;12.61;89.16
6464;BME280;3265;42.694;23.282;2023-04-03T12:07:14;93869.09;;;12.50;89.27
6464;BME280;3265;42.694;23.282;2023-04-03T12:10:00;93865.13;;;12.37;91.13
6464;BME280;3265;42.694;23.282;2023-04-03T12:12:30;93870.53;;;12.31;91.62
6464;BME280;3265;42.694;23.282;2023-04-03T12:15:17;93858.47;;;12.25;91.49
6464;BME280;3265;42.694;23.282;2023-04-03T12:17:45;93855.34;;;12.23;91.54
6464;BME280;3265;42.694;23.282;2023-04-03T12:20:52;93844.38;;;12.21;92.63
6464;BME280;3265;42.694;23.282;2023-04-03T12:23:34;93842.31;;;12.23;93.32
6464;BME280;3265;42.694;23.282;2023-04-03T12:26:05;93845.13;;;12.16;94.77
6464;BME280;3265;42.694;23.282;2023-04-03T12:28:39;93836.72;;;12.09;94.83
6464;BME280;3265;42.694;23.282;2023-04-03T12:31:10;93837.28;;;12.11;96.14
6464;BME280;3265;42.694;23.282;2023-04-03T12:33:50;93832.22;;;12.00;98.48
6464;BME280;3265;42.694;23.282;2023-04-03T12:36:32;93833.91;;;11.89;99.45
6464;BME280;3265;42.694;23.282;2023-04-03T12:39:11;93828.72;;;11.89;100.00
6464;BME280;3265;42.694;23.282;2023-04-03T12:41:46;93825.72;;;11.75;100.00
6464;BME280;3265;42.694;23.282;2023-04-03T12:44:31;93821.78;;;11.73;100.00
6464;BME280;3265;42.694;23.282;2023-04-03T12:47:27;93815.56;;;11.52;100.00
6464;BME280;3265;42.694;23.282;2023-04-03T12:49:54;93811.88;;;11.48;100.00
6464;BME280;3265;42.694;23.282;2023-04-03T12:52:32;93795.66;;;11.41;100.00
6464;BME280;3265;42.694;23.282;2023-04-03T12:55:01;93803.25;;;11.43;100.00
6464;BME280;3265;42.694;23.282;2023-04-03T12:57:30;93786.41;;;11.28;100.00
6464;BME280;3265;42.694;23.282;2023-04-03T12:59:58;93795.09;;;11.12;100.00
6464;BME280;3265;42.694;23.282;2023-04-03T13:02:26;93805.38;;;11.02;100.00
6464;BME280;3265;42.694;23.282;2023-04-03T13:04:55;93792.91;;;11.04;100.00
6464;BME280;3265;42.694;23.282;2023-04-03T13:07:27;93797.78;;;11.01;100.00
6464;BME280;3265;42.694;23.282;2023-04-03T13:09:58;93793.56;;;10.95;100.00
6464;BME280;3265;42.694;23.282;2023-04-03T13:12:27;93793.97;;;10.87;100.00
6464;BME280;3265;42.694;23.282;2023-04-03T13:14:56;93797.13;;;10.89;100.00
6464;BME280;3265;42.694;23.282;2023-04-03T13:17:25;93794.41;;;10.78;100.00
6464;BME280;3265;42.694;23.282;2023-04-03T13:19:53;93775.94;;;10.58;100.00
6464;BME280;3265;42.694;23.282;2023-04-03T13:22:27;93796.16;;;10.73;100.00
6464;BME280;3265;42.694;23.282;2023-04-03T13:24:58;93772.78;;;10.56;100.00
6464;BME280;3265;42.694;23.282;2023-04-03T13:27:29;93789.53;;;10.65;100.00
6464;BME280;3265;42.694;23.282;2023-04-03T13:29:58;93780.34;;;10.58;100.00
6464;BME280;3265;42.694;23.282;2023-04-03T13:32:28;93778.69;;;10.52;100.00
6464;BME280;3265;42.694;23.282;2023-04-03T13:34:56;93775.88;;;10.53;100.00
6464;BME280;3265;42.694;23.282;2023-04-03T13:37:25;93784.44;;;10.54;100.00
6464;BME280;3265;42.694;23.282;2023-04-03T13:40:01;93787.97;;;10.48;100.00
6464;BME280;3265;42.694;23.282;2023-04-03T13:42:32;93786.91;;;10.44;100.00